sensor_id;sensor_type;location;lat;lon;timestamp;pressure;altitude;pressure_sealevel;temperature;humidity
163;BME280;3946;48.958;8.284;2023-07-02T00:00:22;99890.09;;;19.08;100.00
163;BME280;3946;48.958;8.284;2023-07-02T00:03:07;99888.13;;;19.18;100.00
163;BME280;3946;48.958;8.284;2023-07-02T00:05:53;99883.72;;;19.27;100.00
163;BME280;3946;48.958;8.284;2023-07-02T00:08:40;99883.03;;;19.25;100.00
163;BME280;3946;48.958;8.284;2023-07-02T00:11:25;99885.34;;;19.11;100.00
163;BME280;3946;48.958;8.284;2023-07-02T00:14:12;99885.81;;;19.72;100.00
163;BME280;3946;48.958;8.284;2023-07-02T00:16:59;99886.97;;;19.45;100.00
163;BME280;3946;48.958;8.284;2023-07-02T00:19:44;99887.31;;;19.50;100.00
163;BME280;3946;48.958;8.284;2023-07-02T00:22:30;99887.56;;;19.96;100.00
163;BME280;3946;48.958;8.284;2023-07-02T00:25:20;99884.72;;;20.05;99.25
163;BME280;3946;48.958;8.284;2023-07-02T00:28:05;99886.69;;;20.03;99.71
163;BME280;3946;48.958;8.284;2023-07-02T00:30:50;99883.78;;;20.68;96.91
163;BME280;3946;48.958;8.284;2023-07-02T00:33:37;99873.09;;;20.92;93.09
163;BME280;3946;48.958;8.284;2023-07-02T00:36:23;99873.84;;;21.01;91.87
163;BME280;3946;48.958;8.284;2023-07-02T00:39:08;99891.13;;;20.03;97.06
163;BME280;3946;48.958;8.284;2023-07-02T00:42:00;99885.16;;;20.17;98.61
163;BME280;3946;48.958;8.284;2023-07-02T00:44:46;99876.97;;;20.51;94.55
163;BME280;3946;48.958;8.284;2023-07-02T00:47:33;99885.97;;;20.25;97.88
163;BME280;3946;48.958;8.284;2023-07-02T00:50:20;99890.59;;;19.36;100.00
163;BME280;3946;48.958;8.284;2023-07-02T00:53:07;99891.41;;;19.36;100.00
163;BME280;3946;48.958;8.284;2023-07-02T00:55:52;99894.84;;;19.69;100.00
163;BME280;3946;48.958;8.284;2023-07-02T00:58:40;99895.66;;;18.80;100.00
163;BME280;3946;48.958;8.284;2023-07-02T01:01:30;99905.03;;;18.83;100.00
163;BME280;3946;48.958;8.284;2023-07-02T01:04:21;99903.03;;;19.82;100.00
163;BME280;3946;48.958;8.284;2023-07-02T01:07:12;99892.44;;;20.07;100.00
163;BME280;3946;48.958;8.284;2023-07-02T01:09:58;99888.38;;;19.88;100.00
163;BME280;3946;48.958;8.284;2023-07-02T01:12:44;99902.72;;;19.04;100.00
163;BME280;3946;48.958;8.284;2023-07-02T01:15:31;99901.59;;;19.07;100.00
163;BME280;3946;48.958;8.284;2023-07-02T01:18:17;99903.88;;;19.42;100.00
163;BME280;3946;48.958;8.284;2023-07-02T01:21:04;99905.34;;;19.77;100.00
163;BME280;3946;48.958;8.284;2023-07-02T01:23:50;99901.09;;;19.76;100.00
163;BME280;3946;48.958;8.284;2023-07-02T01:26:35;99904.34;;;19.86;100.00
163;BME280;3946;48.958;8.284;2023-07-02T01:29:21;99904.22;;;19.47;100.00
163;BME280;3946;48.958;8.284;2023-07-02T01:32:07;99910.28;;;19.72;100.00
163;BME280;3946;48.958;8.284;2023-07-02T01:34:53;99907.19;;;19.61;100.00
163;BME280;3946;48.958;8.284;2023-07-02T01:37:40;99908.00;;;19.61;100.00
163;BME280;3946;48.958;8.284;2023-07-02T01:40:25;99910.63;;;18.96;100.00
163;BME280;3946;48.958;8.284;2023-07-02T01:43:10;99912.72;;;18.84;100.00
163;BME280;3946;48.958;8.284;2023-07-02T01:45:56;99912.06;;;18.82;100.00
163;BME280;3946;48.958;8.284;2023-07-02T01:48:43;99913.56;;;19.09;100.00
163;BME280;3946;48.958;8.284;2023-07-02T01:51:28;99906.63;;;18.84;97.69
163;BME280;3946;48.958;8.284;2023-07-02T01:54:15;99908.44;;;18.75;98.24
163;BME280;3946;48.958;8.284;2023-07-02T01:57:00;99904.84;;;18.84;97.55
163;BME280;3946;48.958;8.284;2023-07-02T01:59:46;99918.81;;;18.93;96.02
163;BME280;3946;48.958;8.284;2023-07-02T02:02:31;99915.84;;;19.04;93.94
163;BME280;3946;48.958;8.284;2023-07-02T02:05:17;99915.72;;;19.30;94.11
163;BME280;3946;48.958;8.284;2023-07-02T02:08:02;99911.47;;;19.29;92.76
163;BME280;3946;48.958;8.284;2023-07-02T02:10:49;99913.06;;;19.71;90.29
163;BME280;3946;48.958;8.284;2023-07-02T02:13:34;99914.41;;;19.59;90.82
163;BME280;3946;48.958;8.284;2023-07-02T02:16:20;99921.97;;;19.13;92.24
163;BME280;3946;48.958;8.284;2023-07-02T02:19:06;99922.59;;;19.07;92.31
163;BME280;3946;48.958;8.284;2023-07-02T02:21:51;99910.97;;;20.13;86.74
163;BME280;3946;48.958;8.284;2023-07-02T02:24:36;99916.53;;;19.71;87.03
163;BME280;3946;48.958;8.284;2023-07-02T02:27:23;99920.09;;;19.95;86.17
163;BME280;3946;48.958;8.284;2023-07-02T02:30:08;99916.69;;;19.37;85.76
163;BME280;3946;48.958;8.284;2023-07-02T02:32:54;99916.34;;;19.65;86.03
163;BME280;3946;48.958;8.284;2023-07-02T02:35:39;99910.44;;;19.06;86.18
163;BME280;3946;48.958;8.284;2023-07-02T02:38:25;99908.66;;;19.63;84.14
163;BME280;3946;48.958;8.284;2023-07-02T02:41:10;99911.28;;;19.55;83.54
163;BME280;3946;48.958;8.284;2023-07-02T02:44:02;99914.88;;;19.70;83.65
163;BME280;3946;48.958;8.284;2023-07-02T02:46:47;99917.50;;;19.78;83.15
163;BME280;3946;48.958;8.284;2023-07-02T02:49:32;99911.75;;;19.75;82.73
163;BME280;3946;48.958;8.284;2023-07-02T02:52:18;99916.16;;;19.82;82.31
163;BME280;3946;48.958;8.284;2023-07-02T02:55:06;99918.19;;;19.40;82.70
163;BME280;3946;48.958;8.284;2023-07-02T02:57:51;99918.31;;;19.95;81.55
163;BME280;3946;48.958;8.284;2023-07-02T03:00:38;99914.09;;;19.62;83.34
163;BME280;3946;48.958;8.284;2023-07-02T03:03:26;99912.94;;;19.56;82.65
163;BME280;3946;48.958;8.284;2023-07-02T03:06:12;99924.34;;;17.98;88.48
163;BME280;3946;48.958;8.284;2023-07-02T03:08:58;99936.47;;;17.55;93.89
163;BME280;3946;48.958;8.284;2023-07-02T03:11:43;99941.38;;;17.14;97.59
163;BME280;3946;48.958;8.284;2023-07-02T03:14:29;99950.63;;;16.91;100.00
163;BME280;3946;48.958;8.284;2023-07-02T03:17:15;99954.19;;;16.72;100.00
163;BME280;3946;48.958;8.284;2023-07-02T03:20:01;99959.94;;;16.49;100.00
163;BME280;3946;48.958;8.284;2023-07-02T03:22:48;99958.09;;;16.59;100.00
163;BME280;3946;48.958;8.284;2023-07-02T03:25:33;99966.44;;;16.44;100.00
163;BME280;3946;48.958;8.284;2023-07-02T03:28:18;99974.06;;;16.38;100.00
163;BME280;3946;48.958;8.284;2023-07-02T03:31:04;99975.28;;;16.34;100.00
163;BME280;3946;48.958;8.284;2023-07-02T03:33:51;99989.22;;;16.25;100.00
163;BME280;3946;48.958;8.284;2023-07-02T03:36:36;99984.03;;;16.15;100.00
163;BME280;3946;48.958;8.284;2023-07-02T03:39:21;99983.78;;;15.99;100.00
163;BME280;3946;48.958;8.284;2023-07-02T03:42:07;100001.94;;;16.00;100.00
163;BME280;3946;48.958;8.284;2023-07-02T03:44:52;99999.75;;;15.96;100.00
163;BME280;3946;48.958;8.284;2023-07-02T03:47:37;100002.94;;;15.80;100.00
163;BME280;3946;48.958;8.284;2023-07-02T03:50:24;100009.81;;;15.81;100.00
163;BME280;3946;48.958;8.284;2023-07-02T03:53:09;100013.38;;;15.99;100.00
163;BME280;3946;48.958;8.284;2023-07-02T03:55:55;100009.66;;;16.02;100.00
163;BME280;3946;48.958;8.284;2023-07-02T03:58:41;100026.03;;;15.85;100.00
163;BME280;3946;48.958;8.284;2023-07-02T04:01:26;100032.50;;;15.81;100.00
163;BME280;3946;48.958;8.284;2023-07-02T04:04:11;100031.53;;;15.82;100.00
163;BME280;3946;48.958;8.284;2023-07-02T04:06:58;100041.72;;;15.85;100.00
163;BME280;3946;48.958;8.284;2023-07-02T04:09:43;100034.97;;;15.92;100.00
163;BME280;3946;48.958;8.284;2023-07-02T04:12:31;100040.19;;;15.92;100.00
163;BME280;3946;48.958;8.284;2023-07-02T04:15:16;100044.44;;;16.02;100.00
163;BME280;3946;48.958;8.284;2023-07-02T04:18:01;100044.84;;;16.17;100.00
163;BME280;3946;48.958;8.284;2023-07-02T04:20:47;100051.59;;;16.00;100.00
163;BME280;3946;48.958;8.284;2023-07-02T04:23:33;100049.78;;;16.10;100.00
163;BME280;3946;48.958;8.284;2023-07-02T04:26:19;100048.38;;;16.26;100.00
163;BME280;3946;48.958;8.284;2023-07-02T04:29:04;100044.94;;;16.25;100.00
163;BME280;3946;48.958;8.284;2023-07-02T04:31:49;100053.78;;;16.61;100.00
163;BME280;3946;48.958;8.284;2023-07-02T04:34:35;100050.75;;;16.56;100.00
163;BME280;3946;48.958;8.284;2023-07-02T04:37:21;100058.47;;;16.58;100.00
163;BME280;3946;48.958;8.284;2023-07-02T04:40:08;100055.06;;;16.48;100.00
163;BME280;3946;48.958;8.284;2023-07-02T04:42:54;100050.53;;;16.40;100.00
163;BME280;3946;48.958;8.284;2023-07-02T04:45:41;100050.66;;;16.48;100.00
163;BME280;3946;48.958;8.284;2023-07-02T04:48:28;100056.72;;;16.49;100.00
163;BME280;3946;48.958;8.284;2023-07-02T04:51:14;100048.00;;;16.58;100.00
163;BME280;3946;48.958;8.284;2023-07-02T04:53:59;100056.31;;;16.53;100.00
163;BME280;3946;48.958;8.284;2023-07-02T04:56:46;100056.59;;;16.87;100.00
163;BME280;3946;48.958;8.284;2023-07-02T04:59:32;100053.63;;;16.72;100.00
163;BME280;3946;48.958;8.284;2023-07-02T05:02:17;100059.44;;;16.94;100.00
163;BME280;3946;48.958;8.284;2023-07-02T05:05:03;100058.81;;;16.82;100.00
163;BME280;3946;48.958;8.284;2023-07-02T05:07:48;100058.97;;;17.08;100.00
163;BME280;3946;48.958;8.284;2023-07-02T05:10:33;100054.44;;;17.45;100.00
163;BME280;3946;48.958;8.284;2023-07-02T05:13:20;100054.69;;;17.70;100.00
163;BME280;3946;48.958;8.284;2023-07-02T05:16:05;100059.03;;;17.79;99.28
163;BME280;3946;48.958;8.284;2023-07-02T05:18:50;100058.34;;;17.59;100.00
163;BME280;3946;48.958;8.284;2023-07-02T05:21:36;100063.44;;;17.61;100.00
163;BME280;3946;48.958;8.284;2023-07-02T05:24:21;100073.13;;;17.78;100.00
163;BME280;3946;48.958;8.284;2023-07-02T05:27:06;100069.78;;;18.37;97.07
163;BME280;3946;48.958;8.284;2023-07-02T05:29:53;100065.06;;;18.41;94.31
163;BME280;3946;48.958;8.284;2023-07-02T05:32:38;100071.31;;;18.22;95.33
163;BME280;3946;48.958;8.284;2023-07-02T05:35:24;100072.50;;;18.02;94.84
163;BME280;3946;48.958;8.284;2023-07-02T05:38:09;100074.22;;;17.93;96.08
163;BME280;3946;48.958;8.284;2023-07-02T05:40:54;100075.34;;;17.73;98.74
163;BME280;3946;48.958;8.284;2023-07-02T05:43:40;100086.00;;;17.71;98.55
163;BME280;3946;48.958;8.284;2023-07-02T05:46:26;100087.63;;;17.72;98.16
163;BME280;3946;48.958;8.284;2023-07-02T05:49:12;100080.38;;;18.02;97.98
163;BME280;3946;48.958;8.284;2023-07-02T05:51:57;100083.97;;;18.01;97.36
163;BME280;3946;48.958;8.284;2023-07-02T05:54:42;100076.69;;;17.95;98.96
163;BME280;3946;48.958;8.284;2023-07-02T05:57:27;100079.78;;;18.34;94.91
163;BME280;3946;48.958;8.284;2023-07-02T06:00:14;100083.16;;;18.26;95.13
163;BME280;3946;48.958;8.284;2023-07-02T06:03:02;100078.66;;;18.18;93.20
163;BME280;3946;48.958;8.284;2023-07-02T06:05:49;100086.25;;;18.22;94.42
163;BME280;3946;48.958;8.284;2023-07-02T06:08:34;100104.13;;;18.00;94.29
163;BME280;3946;48.958;8.284;2023-07-02T06:11:19;100100.88;;;17.89;95.17
163;BME280;3946;48.958;8.284;2023-07-02T06:14:05;100095.63;;;18.06;94.94
163;BME280;3946;48.958;8.284;2023-07-02T06:16:50;100091.59;;;18.12;93.63
163;BME280;3946;48.958;8.284;2023-07-02T06:19:37;100098.84;;;18.18;93.87
163;BME280;3946;48.958;8.284;2023-07-02T06:22:23;100107.50;;;18.36;91.58
163;BME280;3946;48.958;8.284;2023-07-02T06:25:08;100107.44;;;18.54;90.45
163;BME280;3946;48.958;8.284;2023-07-02T06:27:53;100106.66;;;18.79;89.03
163;BME280;3946;48.958;8.284;2023-07-02T06:30:42;100107.84;;;18.93;88.89
163;BME280;3946;48.958;8.284;2023-07-02T06:33:27;100108.22;;;18.98;87.18
163;BME280;3946;48.958;8.284;2023-07-02T06:36:14;100107.25;;;18.73;86.24
163;BME280;3946;48.958;8.284;2023-07-02T06:38:59;100109.72;;;18.67;85.46
163;BME280;3946;48.958;8.284;2023-07-02T06:41:44;100111.84;;;19.05;86.15
163;BME280;3946;48.958;8.284;2023-07-02T06:44:29;100106.97;;;19.18;84.16
163;BME280;3946;48.958;8.284;2023-07-02T06:47:15;100109.63;;;19.27;83.13
163;BME280;3946;48.958;8.284;2023-07-02T06:50:00;100114.75;;;19.36;82.74
163;BME280;3946;48.958;8.284;2023-07-02T06:52:47;100106.31;;;19.75;80.75
163;BME280;3946;48.958;8.284;2023-07-02T06:55:32;100100.91;;;19.84;79.44
163;BME280;3946;48.958;8.284;2023-07-02T06:58:17;100118.97;;;19.63;79.62
163;BME280;3946;48.958;8.284;2023-07-02T07:01:03;100110.25;;;19.87;77.05
163;BME280;3946;48.958;8.284;2023-07-02T07:03:49;100110.44;;;19.94;75.29
163;BME280;3946;48.958;8.284;2023-07-02T07:06:34;100117.69;;;20.40;75.20
163;BME280;3946;48.958;8.284;2023-07-02T07:09:22;100104.00;;;20.53;72.78
163;BME280;3946;48.958;8.284;2023-07-02T07:12:08;100117.53;;;20.97;72.90
163;BME280;3946;48.958;8.284;2023-07-02T07:14:53;100106.28;;;21.19;70.37
163;BME280;3946;48.958;8.284;2023-07-02T07:17:38;100112.06;;;21.07;69.56
163;BME280;3946;48.958;8.284;2023-07-02T07:20:24;100105.72;;;20.93;69.88
163;BME280;3946;48.958;8.284;2023-07-02T07:23:09;100108.50;;;20.91;70.41
163;BME280;3946;48.958;8.284;2023-07-02T07:25:56;100105.13;;;20.75;70.10
163;BME280;3946;48.958;8.284;2023-07-02T07:28:41;100099.84;;;20.75;68.79
163;BME280;3946;48.958;8.284;2023-07-02T07:31:26;100106.75;;;20.76;69.94
163;BME280;3946;48.958;8.284;2023-07-02T07:34:12;100101.63;;;20.82;69.27
163;BME280;3946;48.958;8.284;2023-07-02T07:36:57;100096.09;;;20.53;68.88
163;BME280;3946;48.958;8.284;2023-07-02T07:39:42;100104.84;;;20.37;70.25
163;BME280;3946;48.958;8.284;2023-07-02T07:42:29;100107.78;;;20.58;69.95
163;BME280;3946;48.958;8.284;2023-07-02T07:45:14;100103.69;;;21.03;67.58
163;BME280;3946;48.958;8.284;2023-07-02T07:48:00;100103.59;;;21.27;68.17
163;BME280;3946;48.958;8.284;2023-07-02T07:50:45;100100.38;;;21.09;68.02
163;BME280;3946;48.958;8.284;2023-07-02T07:53:31;100097.00;;;20.84;66.55
163;BME280;3946;48.958;8.284;2023-07-02T07:56:16;100099.09;;;20.97;66.14
163;BME280;3946;48.958;8.284;2023-07-02T07:59:03;100099.50;;;21.25;67.02
163;BME280;3946;48.958;8.284;2023-07-02T08:01:48;100099.84;;;21.53;66.28
163;BME280;3946;48.958;8.284;2023-07-02T08:04:33;100109.38;;;21.77;66.65
163;BME280;3946;48.958;8.284;2023-07-02T08:07:19;100101.72;;;21.67;66.01
163;BME280;3946;48.958;8.284;2023-07-02T08:10:05;100083.31;;;21.82;63.15
163;BME280;3946;48.958;8.284;2023-07-02T08:12:51;100094.38;;;21.77;65.41
163;BME280;3946;48.958;8.284;2023-07-02T08:15:38;100093.03;;;21.81;64.45
163;BME280;3946;48.958;8.284;2023-07-02T08:18:24;100076.47;;;22.48;62.72
163;BME280;3946;48.958;8.284;2023-07-02T08:21:09;100062.38;;;22.55;60.81
163;BME280;3946;48.958;8.284;2023-07-02T08:23:54;100082.28;;;22.28;63.13
163;BME280;3946;48.958;8.284;2023-07-02T08:26:41;100100.84;;;22.87;65.04
163;BME280;3946;48.958;8.284;2023-07-02T08:29:26;100072.94;;;22.99;63.15
163;BME280;3946;48.958;8.284;2023-07-02T08:32:13;100064.16;;;23.14;60.69
163;BME280;3946;48.958;8.284;2023-07-02T08:34:58;100068.88;;;23.18;61.20
163;BME280;3946;48.958;8.284;2023-07-02T08:37:43;100067.22;;;22.81;61.19
163;BME280;3946;48.958;8.284;2023-07-02T08:40:29;100072.94;;;23.35;61.94
163;BME280;3946;48.958;8.284;2023-07-02T08:43:14;100047.50;;;22.98;59.49
163;BME280;3946;48.958;8.284;2023-07-02T08:45:59;100057.44;;;22.96;59.54
163;BME280;3946;48.958;8.284;2023-07-02T08:48:46;100070.00;;;22.94;60.79
163;BME280;3946;48.958;8.284;2023-07-02T08:51:32;100070.94;;;22.87;61.05
163;BME280;3946;48.958;8.284;2023-07-02T08:54:17;100080.41;;;22.96;61.14
163;BME280;3946;48.958;8.284;2023-07-02T08:57:04;100063.69;;;23.10;60.63
163;BME280;3946;48.958;8.284;2023-07-02T08:59:50;100073.03;;;22.77;61.75
163;BME280;3946;48.958;8.284;2023-07-02T09:02:35;100088.84;;;22.32;62.11
163;BME280;3946;48.958;8.284;2023-07-02T09:05:22;100082.00;;;22.23;62.28
163;BME280;3946;48.958;8.284;2023-07-02T09:08:07;100097.84;;;22.23;63.02
163;BME280;3946;48.958;8.284;2023-07-02T09:10:53;100078.09;;;22.34;61.89
163;BME280;3946;48.958;8.284;2023-07-02T09:13:48;100072.94;;;22.55;61.19
163;BME280;3946;48.958;8.284;2023-07-02T09:16:34;100070.59;;;23.26;60.38
163;BME280;3946;48.958;8.284;2023-07-02T09:19:22;100069.53;;;23.20;60.23
163;BME280;3946;48.958;8.284;2023-07-02T09:22:11;100080.88;;;22.85;61.41
163;BME280;3946;48.958;8.284;2023-07-02T09:25:00;100058.50;;;23.17;58.54
163;BME280;3946;48.958;8.284;2023-07-02T09:27:45;100076.50;;;23.28;60.35
163;BME280;3946;48.958;8.284;2023-07-02T09:30:31;100043.13;;;23.63;58.61
163;BME280;3946;48.958;8.284;2023-07-02T09:33:17;100038.09;;;23.68;57.75
163;BME280;3946;48.958;8.284;2023-07-02T09:36:03;100035.91;;;23.99;57.07
163;BME280;3946;48.958;8.284;2023-07-02T09:38:52;100058.94;;;23.78;59.91
163;BME280;3946;48.958;8.284;2023-07-02T09:41:42;100027.59;;;24.02;56.45
163;BME280;3946;48.958;8.284;2023-07-02T09:44:33;100041.75;;;23.67;58.20
163;BME280;3946;48.958;8.284;2023-07-02T09:47:22;100054.84;;;23.39;59.70
163;BME280;3946;48.958;8.284;2023-07-02T09:50:12;100046.59;;;23.27;58.01
163;BME280;3946;48.958;8.284;2023-07-02T09:53:02;100054.16;;;22.21;59.57
163;BME280;3946;48.958;8.284;2023-07-02T09:55:52;100073.06;;;21.87;61.25
163;BME280;3946;48.958;8.284;2023-07-02T09:58:41;100076.28;;;22.34;61.82
163;BME280;3946;48.958;8.284;2023-07-02T10:01:32;100070.50;;;21.93;60.89
163;BME280;3946;48.958;8.284;2023-07-02T10:04:21;100081.13;;;22.08;62.05
163;BME280;3946;48.958;8.284;2023-07-02T10:07:12;100070.13;;;22.72;60.61
163;BME280;3946;48.958;8.284;2023-07-02T10:09:59;100043.22;;;22.97;59.50
163;BME280;3946;48.958;8.284;2023-07-02T10:12:49;100054.88;;;23.03;60.38
163;BME280;3946;48.958;8.284;2023-07-02T10:15:37;100039.25;;;23.08;58.92
163;BME280;3946;48.958;8.284;2023-07-02T10:18:26;100029.72;;;23.28;58.07
163;BME280;3946;48.958;8.284;2023-07-02T10:21:15;100033.88;;;23.16;58.16
163;BME280;3946;48.958;8.284;2023-07-02T10:24:12;100047.44;;;22.77;60.13
163;BME280;3946;48.958;8.284;2023-07-02T10:27:01;100037.03;;;22.46;57.86
163;BME280;3946;48.958;8.284;2023-07-02T10:29:54;100033.50;;;22.83;59.33
163;BME280;3946;48.958;8.284;2023-07-02T10:32:41;100046.06;;;22.81;59.63
163;BME280;3946;48.958;8.284;2023-07-02T10:35:33;100017.69;;;23.62;57.05
163;BME280;3946;48.958;8.284;2023-07-02T10:38:22;99991.63;;;24.15;54.37
163;BME280;3946;48.958;8.284;2023-07-02T10:41:10;100007.91;;;24.46;55.65
163;BME280;3946;48.958;8.284;2023-07-02T10:44:06;99992.97;;;24.80;52.90
163;BME280;3946;48.958;8.284;2023-07-02T10:46:57;99985.88;;;24.39;51.82
163;BME280;3946;48.958;8.284;2023-07-02T10:49:48;99999.47;;;24.29;53.10
163;BME280;3946;48.958;8.284;2023-07-02T10:52:37;99994.09;;;24.51;52.79
163;BME280;3946;48.958;8.284;2023-07-02T10:55:26;99996.88;;;24.90;53.20
163;BME280;3946;48.958;8.284;2023-07-02T10:58:15;99981.25;;;25.08;50.69
163;BME280;3946;48.958;8.284;2023-07-02T11:01:03;99963.78;;;25.47;49.95
163;BME280;3946;48.958;8.284;2023-07-02T11:04:02;99953.75;;;25.23;49.19
163;BME280;3946;48.958;8.284;2023-07-02T11:06:51;99951.31;;;24.60;49.10
163;BME280;3946;48.958;8.284;2023-07-02T11:09:39;99964.59;;;24.67;49.71
163;BME280;3946;48.958;8.284;2023-07-02T11:12:29;99952.91;;;24.48;49.27
163;BME280;3946;48.958;8.284;2023-07-02T11:15:18;99976.75;;;24.14;51.28
163;BME280;3946;48.958;8.284;2023-07-02T11:18:09;99995.53;;;24.19;53.63
163;BME280;3946;48.958;8.284;2023-07-02T11:20:55;99966.34;;;25.01;50.19
163;BME280;3946;48.958;8.284;2023-07-02T11:23:41;99944.16;;;25.35;48.08
163;BME280;3946;48.958;8.284;2023-07-02T11:26:34;99949.28;;;25.76;48.18
163;BME280;3946;48.958;8.284;2023-07-02T11:29:20;99938.44;;;25.84;47.78
163;BME280;3946;48.958;8.284;2023-07-02T11:32:06;99977.91;;;24.87;50.54
163;BME280;3946;48.958;8.284;2023-07-02T11:34:53;99981.25;;;24.48;51.41
163;BME280;3946;48.958;8.284;2023-07-02T11:37:41;99960.28;;;24.59;49.95
163;BME280;3946;48.958;8.284;2023-07-02T11:40:27;99941.41;;;24.82;49.05
163;BME280;3946;48.958;8.284;2023-07-02T11:43:12;99958.25;;;25.16;50.91
163;BME280;3946;48.958;8.284;2023-07-02T11:45:58;99948.44;;;25.36;49.26
163;BME280;3946;48.958;8.284;2023-07-02T11:48:43;99953.16;;;25.47;49.06
163;BME280;3946;48.958;8.284;2023-07-02T11:51:29;99927.66;;;25.72;48.22
163;BME280;3946;48.958;8.284;2023-07-02T11:54:16;99918.44;;;25.95;47.01
163;BME280;3946;48.958;8.284;2023-07-02T11:57:02;99921.34;;;26.44;47.44
163;BME280;3946;48.958;8.284;2023-07-02T11:59:47;99881.50;;;26.38;43.83
163;BME280;3946;48.958;8.284;2023-07-02T12:02:33;99902.50;;;26.91;44.61
163;BME280;3946;48.958;8.284;2023-07-02T12:05:19;99876.91;;;26.90;43.59
163;BME280;3946;48.958;8.284;2023-07-02T12:08:05;99918.50;;;27.15;46.15
163;BME280;3946;48.958;8.284;2023-07-02T12:10:51;99880.16;;;27.48;43.98
163;BME280;3946;48.958;8.284;2023-07-02T12:13:36;99882.38;;;26.70;42.91
163;BME280;3946;48.958;8.284;2023-07-02T12:16:22;99873.38;;;26.26;43.17
163;BME280;3946;48.958;8.284;2023-07-02T12:19:07;99910.53;;;26.39;45.95
163;BME280;3946;48.958;8.284;2023-07-02T12:21:53;99876.09;;;26.58;42.94
163;BME280;3946;48.958;8.284;2023-07-02T12:24:38;99874.06;;;26.53;43.19
163;BME280;3946;48.958;8.284;2023-07-02T12:27:25;99886.38;;;26.47;43.35
163;BME280;3946;48.958;8.284;2023-07-02T12:30:11;99891.59;;;26.99;43.82
163;BME280;3946;48.958;8.284;2023-07-02T12:32:56;99883.28;;;26.82;42.98
163;BME280;3946;48.958;8.284;2023-07-02T12:35:41;99883.09;;;26.83;43.47
163;BME280;3946;48.958;8.284;2023-07-02T12:38:27;99857.00;;;27.05;40.87
163;BME280;3946;48.958;8.284;2023-07-02T12:41:12;99868.38;;;27.12;42.25
163;BME280;3946;48.958;8.284;2023-07-02T12:44:01;99845.44;;;26.87;40.54
163;BME280;3946;48.958;8.284;2023-07-02T12:46:47;99876.13;;;27.14;43.20
163;BME280;3946;48.958;8.284;2023-07-02T12:49:32;99845.41;;;26.93;40.56
163;BME280;3946;48.958;8.284;2023-07-02T12:52:17;99876.63;;;27.04;43.53
163;BME280;3946;48.958;8.284;2023-07-02T12:55:04;99858.03;;;26.66;41.84
163;BME280;3946;48.958;8.284;2023-07-02T12:57:49;99875.31;;;26.82;42.98
163;BME280;3946;48.958;8.284;2023-07-02T13:00:36;99844.44;;;26.49;41.21
163;BME280;3946;48.958;8.284;2023-07-02T13:03:21;99858.03;;;27.04;41.42
163;BME280;3946;48.958;8.284;2023-07-02T13:06:09;99843.72;;;26.67;40.78
163;BME280;3946;48.958;8.284;2023-07-02T13:08:54;99843.91;;;26.72;41.29
163;BME280;3946;48.958;8.284;2023-07-02T13:11:40;99823.56;;;26.84;39.80
163;BME280;3946;48.958;8.284;2023-07-02T13:14:25;99829.88;;;26.59;40.47
163;BME280;3946;48.958;8.284;2023-07-02T13:17:12;99821.63;;;26.98;40.24
163;BME280;3946;48.958;8.284;2023-07-02T13:19:57;99828.69;;;26.79;40.11
163;BME280;3946;48.958;8.284;2023-07-02T13:22:43;99834.59;;;26.95;40.63
163;BME280;3946;48.958;8.284;2023-07-02T13:25:28;99821.13;;;26.83;39.86
163;BME280;3946;48.958;8.284;2023-07-02T13:28:13;99797.34;;;26.88;38.36
163;BME280;3946;48.958;8.284;2023-07-02T13:30:59;99821.72;;;26.60;39.75
163;BME280;3946;48.958;8.284;2023-07-02T13:33:46;99834.34;;;26.65;40.65
163;BME280;3946;48.958;8.284;2023-07-02T13:36:31;99827.38;;;26.95;40.33
163;BME280;3946;48.958;8.284;2023-07-02T13:39:16;99801.00;;;27.18;38.47
163;BME280;3946;48.958;8.284;2023-07-02T13:42:02;99818.81;;;27.18;40.48
163;BME280;3946;48.958;8.284;2023-07-02T13:44:48;99800.41;;;27.16;39.22
163;BME280;3946;48.958;8.284;2023-07-02T13:47:33;99802.78;;;26.75;38.84
163;BME280;3946;48.958;8.284;2023-07-02T13:50:20;99795.16;;;26.54;37.99
163;BME280;3946;48.958;8.284;2023-07-02T13:53:05;99819.88;;;26.86;39.33
163;BME280;3946;48.958;8.284;2023-07-02T13:55:51;99821.31;;;26.81;39.49
163;BME280;3946;48.958;8.284;2023-07-02T13:58:58;99822.94;;;26.58;39.27
163;BME280;3946;48.958;8.284;2023-07-02T14:01:43;99824.47;;;26.40;39.12
163;BME280;3946;48.958;8.284;2023-07-02T14:04:28;99815.28;;;26.43;39.18
163;BME280;3946;48.958;8.284;2023-07-02T14:07:13;99833.47;;;26.39;40.09
163;BME280;3946;48.958;8.284;2023-07-02T14:09:58;99836.34;;;26.69;40.93
163;BME280;3946;48.958;8.284;2023-07-02T14:12:43;99804.38;;;26.51;38.29
163;BME280;3946;48.958;8.284;2023-07-02T14:15:29;99814.59;;;26.54;39.44
163;BME280;3946;48.958;8.284;2023-07-02T14:18:14;99838.09;;;26.82;40.34
163;BME280;3946;48.958;8.284;2023-07-02T14:20:59;99831.25;;;26.99;40.10
163;BME280;3946;48.958;8.284;2023-07-02T14:23:45;99820.69;;;26.86;39.29
163;BME280;3946;48.958;8.284;2023-07-02T14:26:30;99824.53;;;27.22;39.97
163;BME280;3946;48.958;8.284;2023-07-02T14:29:14;99830.00;;;27.27;40.65
163;BME280;3946;48.958;8.284;2023-07-02T14:32:02;99812.06;;;27.40;39.43
163;BME280;3946;48.958;8.284;2023-07-02T14:34:47;99820.25;;;27.39;39.79
163;BME280;3946;48.958;8.284;2023-07-02T14:37:32;99821.00;;;27.46;39.20
163;BME280;3946;48.958;8.284;2023-07-02T14:40:17;99797.69;;;27.23;38.59
163;BME280;3946;48.958;8.284;2023-07-02T14:43:02;99804.22;;;27.02;38.09
163;BME280;3946;48.958;8.284;2023-07-02T14:45:50;99823.16;;;26.81;39.60
163;BME280;3946;48.958;8.284;2023-07-02T14:48:37;99800.84;;;26.89;38.22
163;BME280;3946;48.958;8.284;2023-07-02T14:51:23;99796.38;;;26.58;38.31
163;BME280;3946;48.958;8.284;2023-07-02T14:54:08;99801.06;;;27.12;38.85
163;BME280;3946;48.958;8.284;2023-07-02T14:56:53;99815.63;;;27.28;39.15
163;BME280;3946;48.958;8.284;2023-07-02T14:59:39;99806.28;;;27.00;39.29
163;BME280;3946;48.958;8.284;2023-07-02T15:02:24;99839.09;;;26.94;40.42
163;BME280;3946;48.958;8.284;2023-07-02T15:05:11;99817.25;;;27.10;39.49
163;BME280;3946;48.958;8.284;2023-07-02T15:07:57;99813.09;;;27.14;38.65